Terminal Aerodrome Forecast
Issued by NWS

Home | Current Version | Previous Version | Text Only | Print | Product List | Glossary On
Versions: 1 2 3 4 5 6 7 8 9 10 11 12 13 14
000
FTUS45 KTFX 050520
TAFLWT
TAF
KLWT 050520Z 0506/0606 VRB05KT P6SM SCT120
     FM051700 20011KT P6SM SCT050 BKN090 PROB30 0521/0602 VRB15G30KT
      TSRA BKN050CB
     FM060300 29008KT P6SM VCSH SCT040 OVC080=

USA.gov is the U.S. government's official web portal to all federal, state and local government web resources and services.